createdAt,value
2019-04-25T00:00:17.638Z,99869.48
2019-04-25T00:02:46.951Z,99864.67
2019-04-25T00:05:16.568Z,99865.80
2019-04-25T00:07:47.139Z,99862.22
2019-04-25T00:10:16.830Z,99852.12
2019-04-25T00:12:46.208Z,99857.27
2019-04-25T00:15:15.481Z,99860.61
2019-04-25T00:17:44.776Z,99850.53
2019-04-25T00:20:14.659Z,99841.08
2019-04-25T00:22:45.637Z,99842.36
2019-04-25T00:25:32.856Z,99840.05
2019-04-25T00:28:02.619Z,99834.98
2019-04-25T00:30:33.121Z,99841.84
2019-04-25T00:33:02.432Z,99838.72
2019-04-25T00:35:32.175Z,99830.55
2019-04-25T00:38:02.377Z,99831.36
2019-04-25T00:40:32.284Z,99842.22
2019-04-25T00:43:01.724Z,99852.86
2019-04-25T00:45:31.697Z,99855.55
2019-04-25T00:48:04.024Z,99865.09
2019-04-25T00:50:33.806Z,99872.23
2019-04-25T00:53:03.282Z,99869.60
2019-04-25T00:55:32.679Z,99890.23
2019-04-25T00:58:09.703Z,99884.75
2019-04-25T01:00:43.454Z,99887.52
2019-04-25T01:03:26.707Z,99892.52
2019-04-25T01:05:56.292Z,99900.87
2019-04-25T01:08:25.850Z,99908.00
2019-04-25T01:10:55.520Z,99911.77
2019-04-25T01:13:24.819Z,99912.58
2019-04-25T01:15:54.744Z,99913.09
2019-04-25T01:18:25.221Z,99917.17
2019-04-25T01:20:55.475Z,99909.89
2019-04-25T01:23:25.153Z,99913.57
2019-04-25T01:25:54.806Z,99905.22
2019-04-25T01:28:24.439Z,99902.95
2019-04-25T01:30:55.051Z,99907.91
2019-04-25T01:33:25.558Z,99906.91
2019-04-25T01:36:05.786Z,99917.92
2019-04-25T01:38:37.151Z,99919.26
2019-04-25T01:41:20.086Z,99913.57
2019-04-25T01:43:53.147Z,99915.61
2019-04-25T01:46:24.214Z,99913.38
2019-04-25T01:48:54.520Z,99915.02
2019-04-25T01:51:24.555Z,99908.42
2019-04-25T01:53:54.841Z,99904.71
2019-04-25T01:56:25.199Z,99910.20
2019-04-25T01:58:55.045Z,99909.87
2019-04-25T02:01:25.610Z,99912.14
2019-04-25T02:03:55.543Z,99914.45
2019-04-25T02:06:25.130Z,99910.29
2019-04-25T02:08:55.228Z,99906.78
2019-04-25T02:11:34.000Z,99904.47
2019-04-25T02:14:04.822Z,99910.55
2019-04-25T02:16:35.405Z,99909.08
2019-04-25T02:19:05.571Z,99919.93
2019-04-25T02:21:35.048Z,99919.42
2019-04-25T02:24:05.686Z,99918.81
2019-04-25T02:26:35.544Z,99917.11
2019-04-25T02:29:05.243Z,99919.13
2019-04-25T02:31:34.980Z,99924.72
2019-04-25T02:34:08.439Z,99927.42
2019-04-25T02:36:36.112Z,99934.89
2019-04-25T02:39:09.135Z,99945.23
2019-04-25T02:41:38.967Z,99942.50
2019-04-25T02:44:10.169Z,99941.05
2019-04-25T02:46:41.656Z,99937.75
2019-04-25T02:49:35.949Z,99936.69
2019-04-25T02:52:18.045Z,99941.51
2019-04-25T02:54:47.734Z,99937.30
2019-04-25T02:57:17.418Z,99939.58
2019-04-25T02:59:46.785Z,99942.17
2019-04-25T03:02:16.120Z,99937.73
2019-04-25T03:04:45.522Z,99936.22
2019-04-25T03:07:17.563Z,99934.36
2019-04-25T03:09:46.332Z,99934.55
2019-04-25T03:12:29.194Z,99936.95
2019-04-25T03:14:46.919Z,99939.25
2019-04-25T03:17:16.259Z,99935.63
2019-04-25T03:20:06.622Z,99943.59
2019-04-25T03:22:34.813Z,99935.27
2019-04-25T03:25:08.776Z,99932.24
2019-04-25T03:27:37.076Z,99929.44
2019-04-25T03:30:13.735Z,99931.18
2019-04-25T03:32:40.636Z,99926.73
2019-04-25T03:35:10.196Z,99922.38
2019-04-25T03:37:39.519Z,99926.95
2019-04-25T03:40:09.667Z,99930.92
2019-04-25T03:42:39.158Z,99928.15
2019-04-25T03:45:09.433Z,99927.86
2019-04-25T03:47:39.186Z,99938.53
2019-04-25T03:50:08.866Z,99936.23
2019-04-25T03:52:38.676Z,99933.40
2019-04-25T03:55:08.685Z,99929.20
2019-04-25T03:57:38.171Z,99930.56
2019-04-25T04:00:08.724Z,99937.76
2019-04-25T04:02:38.076Z,99939.75
2019-04-25T04:05:08.382Z,99945.04
2019-04-25T04:07:38.512Z,99937.28
2019-04-25T04:10:09.934Z,99955.10
2019-04-25T04:12:39.252Z,99948.09
2019-04-25T04:15:09.262Z,99958.13
2019-04-25T04:17:40.197Z,99968.19
2019-04-25T04:20:11.582Z,99967.89
2019-04-25T04:22:43.854Z,99968.36
2019-04-25T04:25:15.895Z,99967.52
2019-04-25T04:27:45.370Z,99964.26
2019-04-25T04:30:15.398Z,99962.89
2019-04-25T04:32:45.020Z,99963.73
2019-04-25T04:35:15.149Z,99961.03
2019-04-25T04:37:45.727Z,99966.86
2019-04-25T04:40:17.250Z,99974.61
2019-04-25T04:42:46.157Z,99977.03
2019-04-25T04:45:16.498Z,99975.39
2019-04-25T04:47:46.378Z,99973.66
2019-04-25T04:50:16.660Z,99981.09
2019-04-25T04:52:46.247Z,99974.19
2019-04-25T04:55:17.256Z,99976.65
2019-04-25T04:57:46.809Z,99971.28
2019-04-25T05:00:16.956Z,99973.60
2019-04-25T05:02:50.998Z,99969.33
2019-04-25T05:05:23.489Z,99969.87
2019-04-25T05:07:54.578Z,99972.08
2019-04-25T05:10:24.648Z,99960.56
2019-04-25T05:12:54.298Z,99958.21
2019-04-25T05:15:24.792Z,99956.22
2019-04-25T05:17:54.529Z,99953.44
2019-04-25T05:20:24.306Z,99956.98
2019-04-25T05:22:54.936Z,99959.31
2019-04-25T05:25:24.871Z,99956.50
2019-04-25T05:28:00.728Z,99959.01
2019-04-25T05:30:29.525Z,99957.63
2019-04-25T05:32:58.836Z,99950.15
2019-04-25T05:35:28.150Z,99950.45
2019-04-25T05:37:57.429Z,99957.44
2019-04-25T05:40:26.725Z,99964.23
2019-04-25T05:43:06.401Z,99970.44
2019-04-25T05:45:35.711Z,99970.13
2019-04-25T05:48:06.067Z,99971.41
2019-04-25T05:50:35.635Z,99973.44
2019-04-25T05:53:04.935Z,99963.53
2019-04-25T05:55:34.407Z,99966.72
2019-04-25T05:58:04.062Z,99970.37
2019-04-25T06:00:34.096Z,99974.62
2019-04-25T06:03:03.884Z,99985.13
2019-04-25T06:05:33.615Z,99988.31
2019-04-25T06:08:04.371Z,99989.95
2019-04-25T06:10:41.784Z,99996.78
2019-04-25T06:13:13.769Z,99990.30
2019-04-25T06:15:45.226Z,99988.44
2019-04-25T06:18:16.206Z,99980.95
2019-04-25T06:20:45.982Z,99985.81
2019-04-25T06:23:20.567Z,100000.84
2019-04-25T06:25:50.080Z,100013.49
2019-04-25T06:28:21.723Z,100009.25
2019-04-25T06:30:51.893Z,100013.70
2019-04-25T06:33:23.680Z,100019.86
2019-04-25T06:35:52.540Z,100009.77
2019-04-25T06:38:24.826Z,100020.09
2019-04-25T06:40:53.598Z,100024.59
2019-04-25T06:43:24.570Z,100032.00
2019-04-25T06:46:14.174Z,100047.73
2019-04-25T06:48:51.205Z,100060.89
2019-04-25T06:51:22.464Z,100047.23
2019-04-25T06:53:53.362Z,100045.23
2019-04-25T06:56:24.849Z,100055.17
2019-04-25T06:58:54.989Z,100053.05
2019-04-25T07:01:27.425Z,100073.33
2019-04-25T07:03:56.359Z,100070.52
2019-04-25T07:06:26.422Z,100075.01
2019-04-25T07:08:56.606Z,100075.84
2019-04-25T07:11:27.006Z,100078.66
2019-04-25T07:13:56.718Z,100078.64
2019-04-25T07:16:26.190Z,100076.58
2019-04-25T07:18:55.756Z,100072.52
2019-04-25T07:21:25.937Z,100070.62
2019-04-25T07:23:55.580Z,100070.98
2019-04-25T07:26:28.228Z,100070.20
2019-04-25T07:29:03.287Z,100079.26
2019-04-25T07:31:35.695Z,100072.01
2019-04-25T07:34:07.093Z,100083.77
2019-04-25T07:36:37.312Z,100091.84
2019-04-25T07:39:10.553Z,100091.03
2019-04-25T07:41:40.436Z,100082.37
2019-04-25T07:44:09.908Z,100086.84
2019-04-25T07:46:40.133Z,100082.00
2019-04-25T07:49:09.811Z,100098.52
2019-04-25T07:51:39.124Z,100087.66
2019-04-25T07:54:08.411Z,100086.55
2019-04-25T07:56:39.319Z,100068.72
2019-04-25T07:59:08.682Z,100076.80
2019-04-25T08:01:39.102Z,100081.54
2019-04-25T08:04:08.840Z,100072.00
2019-04-25T08:06:38.216Z,100071.89
2019-04-25T08:09:11.215Z,100078.19
2019-04-25T08:11:41.120Z,100083.23
2019-04-25T08:14:12.136Z,100071.95
2019-04-25T08:16:58.850Z,100074.33
2019-04-25T08:19:28.712Z,100073.27
2019-04-25T08:22:00.055Z,100070.83
2019-04-25T08:24:31.179Z,100075.94
2019-04-25T08:27:00.469Z,100078.95
2019-04-25T08:29:31.745Z,100081.28
2019-04-25T08:32:01.125Z,100079.59
2019-04-25T08:34:31.012Z,100078.30
2019-04-25T08:37:00.464Z,100079.55
2019-04-25T08:39:30.443Z,100075.02
2019-04-25T08:41:59.822Z,100081.34
2019-04-25T08:44:29.128Z,100082.80
2019-04-25T08:46:58.553Z,100068.61
2019-04-25T08:49:29.503Z,100085.78
2019-04-25T08:51:59.650Z,100077.55
2019-04-25T08:54:31.038Z,100077.13
2019-04-25T08:57:04.340Z,100078.67
2019-04-25T08:59:52.277Z,100071.94
2019-04-25T09:02:26.911Z,100075.64
2019-04-25T09:05:14.480Z,100071.55
2019-04-25T09:07:45.394Z,100072.88
2019-04-25T09:10:15.296Z,100071.84
2019-04-25T09:12:45.388Z,100079.70
2019-04-25T09:15:15.827Z,100075.52
2019-04-25T09:17:47.058Z,100078.47
2019-04-25T09:20:16.885Z,100078.25
2019-04-25T09:22:46.161Z,100074.43
2019-04-25T09:25:17.134Z,100075.91
2019-04-25T09:27:47.071Z,100070.80
2019-04-25T09:30:17.190Z,100069.22
2019-04-25T09:32:46.538Z,100065.61
2019-04-25T09:35:15.922Z,100062.02
2019-04-25T09:37:46.235Z,100060.52
2019-04-25T09:40:17.135Z,100052.68
2019-04-25T09:42:47.088Z,100046.86
2019-04-25T09:45:20.067Z,100039.82
2019-04-25T09:47:51.067Z,100040.39
2019-04-25T09:50:38.345Z,100038.63
2019-04-25T09:53:21.068Z,100055.94
2019-04-25T09:55:50.717Z,100038.27
2019-04-25T09:58:25.005Z,100038.14
2019-04-25T10:01:01.717Z,100033.92
2019-04-25T10:03:31.162Z,100041.20
2019-04-25T10:06:00.643Z,100030.67
2019-04-25T10:08:29.942Z,100030.80
2019-04-25T10:10:59.342Z,100012.42
2019-04-25T10:13:29.040Z,100011.89
2019-04-25T10:16:03.759Z,100002.99
2019-04-25T10:18:34.780Z,100007.47
2019-04-25T10:21:07.216Z,99996.58
2019-04-25T10:23:38.164Z,100005.34
2019-04-25T10:26:10.545Z,99997.73
2019-04-25T10:28:41.637Z,100005.99
2019-04-25T10:31:13.602Z,99982.25
2019-04-25T10:33:45.286Z,99984.75
2019-04-25T10:36:14.544Z,99944.69
2019-04-25T10:38:54.489Z,99989.95
2019-04-25T10:41:16.378Z,99982.88
2019-04-25T10:43:46.122Z,99975.03
2019-04-25T10:46:17.946Z,99969.95
2019-04-25T10:48:48.032Z,99980.99
2019-04-25T10:51:17.647Z,99985.37
2019-04-25T10:53:47.061Z,99973.14
2019-04-25T10:56:16.522Z,99971.55
2019-04-25T10:58:46.739Z,99967.64
2019-04-25T11:01:16.425Z,99975.56
2019-04-25T11:03:48.367Z,99967.38
2019-04-25T11:06:20.175Z,99975.41
2019-04-25T11:08:49.931Z,99971.07
2019-04-25T11:11:19.298Z,99970.78
2019-04-25T11:13:49.017Z,99974.56
2019-04-25T11:16:18.393Z,99964.56
2019-04-25T11:18:48.043Z,99986.92
2019-04-25T11:21:17.513Z,99976.73
2019-04-25T11:23:48.859Z,99976.02
2019-04-25T11:26:20.331Z,99964.72
2019-04-25T11:28:50.964Z,99968.52
2019-04-25T11:31:23.527Z,99965.00
2019-04-25T11:33:54.506Z,99960.30
2019-04-25T11:36:24.991Z,99969.44
2019-04-25T11:39:13.565Z,99957.17
2019-04-25T11:41:46.198Z,99948.50
2019-04-25T11:44:14.718Z,99940.41
2019-04-25T11:46:45.751Z,99931.14
2019-04-25T11:49:15.649Z,99934.92
2019-04-25T11:51:46.034Z,99925.74
2019-04-25T11:54:15.572Z,99923.95
2019-04-25T11:56:46.073Z,99914.52
2019-04-25T11:59:16.283Z,99902.53
2019-04-25T12:01:47.551Z,99900.23
2019-04-25T12:04:17.378Z,99905.37
2019-04-25T12:06:47.650Z,99920.89
2019-04-25T12:09:18.217Z,99933.04
2019-04-25T12:11:48.522Z,99917.88
2019-04-25T12:14:18.199Z,99925.08
2019-04-25T12:16:50.317Z,99920.06
2019-04-25T12:19:19.563Z,99914.04
2019-04-25T12:21:50.255Z,99918.48
2019-04-25T12:24:19.654Z,99913.35
2019-04-25T12:26:49.598Z,99912.36
2019-04-25T12:29:19.363Z,99909.69
2019-04-25T12:31:49.261Z,99902.86
2019-04-25T12:34:18.746Z,99903.88
2019-04-25T12:36:48.479Z,99905.89
2019-04-25T12:39:18.344Z,99907.31
2019-04-25T12:41:49.019Z,99906.80
2019-04-25T12:44:36.923Z,99896.09
2019-04-25T12:47:20.059Z,99897.01
2019-04-25T12:49:49.448Z,99890.94
2019-04-25T12:52:18.838Z,99890.59
2019-04-25T12:54:49.151Z,99887.05
2019-04-25T12:57:18.887Z,99882.29
2019-04-25T12:59:49.150Z,99880.50
2019-04-25T13:02:18.737Z,99873.13
2019-04-25T13:04:48.129Z,99877.77
2019-04-25T13:07:17.523Z,99884.63
2019-04-25T13:09:48.305Z,99884.54
2019-04-25T13:12:19.930Z,99884.30
2019-04-25T13:14:49.520Z,99882.00
2019-04-25T13:17:19.065Z,99891.41
2019-04-25T13:19:48.414Z,99883.80
2019-04-25T13:22:18.093Z,99884.39
2019-04-25T13:24:47.549Z,99873.07
2019-04-25T13:27:24.245Z,99868.64
2019-04-25T13:30:00.956Z,99858.28
2019-04-25T13:32:32.080Z,99851.88
2019-04-25T13:35:03.816Z,99838.98
2019-04-25T13:37:34.241Z,99835.70
2019-04-25T13:40:04.865Z,99823.58
2019-04-25T13:42:34.141Z,99826.25
2019-04-25T13:45:05.167Z,99814.12
2019-04-25T13:47:35.317Z,99830.16
2019-04-25T13:50:07.851Z,99842.64
2019-04-25T13:52:37.275Z,99838.96
2019-04-25T13:55:06.947Z,99841.42
2019-04-25T13:57:36.359Z,99832.96
2019-04-25T14:00:09.438Z,99828.25
2019-04-25T14:02:38.822Z,99818.56
2019-04-25T14:05:08.688Z,99829.65
2019-04-25T14:07:37.986Z,99815.91
2019-04-25T14:10:07.698Z,99837.89
2019-04-25T14:12:37.004Z,99829.08
2019-04-25T14:15:08.765Z,99829.75
2019-04-25T14:17:40.239Z,99828.70
2019-04-25T14:20:14.402Z,99821.44
2019-04-25T14:22:45.382Z,99829.66
2019-04-25T14:25:15.633Z,99827.96
2019-04-25T14:27:44.959Z,99819.63
2019-04-25T14:30:16.447Z,99821.90
2019-04-25T14:32:45.812Z,99820.83
2019-04-25T14:35:16.245Z,99815.38
2019-04-25T14:37:45.540Z,99821.95
2019-04-25T14:40:15.241Z,99816.66
2019-04-25T14:42:44.541Z,99815.30
2019-04-25T14:45:15.118Z,99816.27
2019-04-25T14:47:44.416Z,99811.19
2019-04-25T14:50:13.775Z,99824.56
2019-04-25T14:52:43.148Z,99830.56
2019-04-25T14:55:31.627Z,99838.27
2019-04-25T14:58:02.992Z,99834.98
2019-04-25T15:00:42.827Z,99829.66
2019-04-25T15:03:12.216Z,99824.86
2019-04-25T15:05:43.417Z,99826.45
2019-04-25T15:08:12.625Z,99823.89
2019-04-25T15:10:41.987Z,99801.48
2019-04-25T15:13:12.002Z,99798.83
2019-04-25T15:15:41.410Z,99803.04
2019-04-25T15:18:10.865Z,99804.81
2019-04-25T15:20:40.145Z,99810.58
2019-04-25T15:23:09.452Z,99799.52
2019-04-25T15:25:39.301Z,99804.02
2019-04-25T15:28:08.826Z,99800.56
2019-04-25T15:30:39.381Z,99807.59
2019-04-25T15:33:09.020Z,99808.56
2019-04-25T15:35:48.446Z,99824.97
2019-04-25T15:38:19.369Z,99827.67
2019-04-25T15:40:52.803Z,99818.23
2019-04-25T15:43:23.783Z,99826.61
2019-04-25T15:45:54.724Z,99825.78
2019-04-25T15:48:24.210Z,99830.63
2019-04-25T15:50:55.659Z,99828.25
2019-04-25T15:53:25.569Z,99828.69
2019-04-25T15:55:54.875Z,99828.52
2019-04-25T15:58:24.251Z,99839.45
2019-04-25T16:00:53.534Z,99841.69
2019-04-25T16:03:22.819Z,99834.79
2019-04-25T16:05:52.188Z,99832.72
2019-04-25T16:08:21.509Z,99826.45
2019-04-25T16:10:50.804Z,99838.33
2019-04-25T16:13:20.190Z,99831.80
2019-04-25T16:15:49.489Z,99837.27
2019-04-25T16:18:18.939Z,99826.72
2019-04-25T16:20:48.240Z,99822.64
2019-04-25T16:23:18.509Z,99830.41
2019-04-25T16:25:47.799Z,99835.26
2019-04-25T16:28:17.100Z,99846.36
2019-04-25T16:30:46.483Z,99841.69
2019-04-25T16:33:15.855Z,99840.03
2019-04-25T16:35:45.144Z,99841.31
2019-04-25T16:38:14.823Z,99853.17
2019-04-25T16:40:44.198Z,99863.23
2019-04-25T16:43:15.209Z,99867.16
2019-04-25T16:45:44.758Z,99871.36
2019-04-25T16:48:14.503Z,99880.79
2019-04-25T16:50:43.807Z,99885.13
2019-04-25T16:53:13.539Z,99889.95
2019-04-25T16:55:42.840Z,99898.34
2019-04-25T16:58:13.197Z,99904.97
2019-04-25T17:00:47.255Z,99914.34
2019-04-25T17:03:17.468Z,99908.95
2019-04-25T17:05:46.805Z,99920.76
2019-04-25T17:08:16.530Z,99935.53
2019-04-25T17:10:45.873Z,99930.58
2019-04-25T17:13:15.448Z,99958.55
2019-04-25T17:15:52.261Z,99945.26
2019-04-25T17:18:25.596Z,99941.45
2019-04-25T17:21:08.561Z,99935.62
2019-04-25T17:23:37.864Z,99926.24
2019-04-25T17:26:08.187Z,99940.48
2019-04-25T17:28:39.250Z,99962.85
2019-04-25T17:31:28.561Z,99967.68
2019-04-25T17:34:08.776Z,99954.39
2019-04-25T17:36:58.320Z,99954.69
2019-04-25T17:39:29.285Z,99958.61
2019-04-25T17:42:01.410Z,99957.74
2019-04-25T17:44:30.240Z,99953.87
2019-04-25T17:47:06.162Z,99952.88
2019-04-25T17:49:30.685Z,99959.44
2019-04-25T17:52:00.067Z,99960.53
2019-04-25T17:54:29.446Z,99966.42
2019-04-25T17:56:58.765Z,99966.67
2019-04-25T17:59:28.503Z,99984.83
2019-04-25T18:01:57.834Z,99983.09
2019-04-25T18:04:27.394Z,99977.17
2019-04-25T18:06:56.926Z,99977.95
2019-04-25T18:09:26.739Z,99989.94
2019-04-25T18:11:56.031Z,99997.75
2019-04-25T18:14:25.392Z,100007.18
2019-04-25T18:16:54.681Z,100025.27
2019-04-25T18:19:44.742Z,100026.77
2019-04-25T18:22:15.685Z,100028.16
2019-04-25T18:24:58.779Z,100040.59
2019-04-25T18:27:29.755Z,100041.04
2019-04-25T18:29:59.066Z,100066.06
2019-04-25T18:32:30.148Z,100074.56
2019-04-25T18:35:01.174Z,100080.87
2019-04-25T18:37:35.004Z,100082.91
2019-04-25T18:40:23.484Z,100084.66
2019-04-25T18:43:00.995Z,100088.59
2019-04-25T18:45:32.141Z,100089.92
2019-04-25T18:48:01.438Z,100093.12
2019-04-25T18:50:32.386Z,100097.45
2019-04-25T18:53:18.412Z,100100.48
2019-04-25T18:55:52.659Z,100108.11
2019-04-25T18:58:29.952Z,100118.34
2019-04-25T19:01:03.768Z,100123.62
2019-04-25T19:03:50.683Z,100134.94
2019-04-25T19:06:22.021Z,100139.33
2019-04-25T19:08:53.413Z,100140.22
2019-04-25T19:11:24.930Z,100147.81
2019-04-25T19:13:54.227Z,100148.45
2019-04-25T19:16:23.898Z,100151.95
2019-04-25T19:18:53.218Z,100157.61
2019-04-25T19:21:22.668Z,100155.11
2019-04-25T19:23:52.756Z,100157.44
2019-04-25T19:26:22.649Z,100167.80
2019-04-25T19:28:52.215Z,100169.78
2019-04-25T19:31:21.704Z,100177.14
2019-04-25T19:33:51.749Z,100182.03
2019-04-25T19:36:21.633Z,100172.91
2019-04-25T19:38:50.953Z,100159.64
2019-04-25T19:41:28.642Z,100169.27
2019-04-25T19:43:59.908Z,100172.19
2019-04-25T19:46:30.870Z,100174.13
2019-04-25T19:49:00.259Z,100168.61
2019-04-25T19:51:29.598Z,100166.69
2019-04-25T19:53:59.239Z,100173.45
2019-04-25T19:56:28.880Z,100181.16
2019-04-25T19:58:58.469Z,100184.20
2019-04-25T20:01:28.182Z,100193.73
2019-04-25T20:04:00.679Z,100196.52
2019-04-25T20:06:47.550Z,100183.80
2019-04-25T20:09:30.394Z,100181.42
2019-04-25T20:11:59.893Z,100183.69
2019-04-25T20:14:29.512Z,100181.77
2019-04-25T20:16:58.834Z,100179.66
2019-04-25T20:19:28.703Z,100173.05
2019-04-25T20:21:58.033Z,100189.41
2019-04-25T20:24:27.383Z,100187.81
2019-04-25T20:26:56.764Z,100186.75
2019-04-25T20:29:27.055Z,100189.47
2019-04-25T20:31:56.417Z,100180.45
2019-04-25T20:34:25.688Z,100186.20
2019-04-25T20:36:55.791Z,100193.94
2019-04-25T20:39:27.780Z,100185.05
2019-04-25T20:41:56.466Z,100188.09
2019-04-25T20:44:25.792Z,100191.73
2019-04-25T20:46:55.354Z,100190.25
2019-04-25T20:49:24.719Z,100195.06
2019-04-25T20:51:54.693Z,100187.83
2019-04-25T20:54:24.404Z,100179.56
2019-04-25T20:56:53.738Z,100169.75
2019-04-25T20:59:23.315Z,100167.73
2019-04-25T21:01:53.518Z,100170.69
2019-04-25T21:04:42.955Z,100177.68
2019-04-25T21:07:13.469Z,100177.22
2019-04-25T21:09:42.971Z,100169.80
2019-04-25T21:12:12.276Z,100177.91
2019-04-25T21:14:46.402Z,100186.08
2019-04-25T21:17:20.080Z,100198.34
2019-04-25T21:19:51.769Z,100190.48
2019-04-25T21:22:22.221Z,100187.28
2019-04-25T21:24:51.857Z,100200.04
2019-04-25T21:27:21.284Z,100207.53
2019-04-25T21:29:51.995Z,100208.11
2019-04-25T21:32:23.194Z,100216.13
2019-04-25T21:34:53.117Z,100228.09
2019-04-25T21:37:22.532Z,100215.66
2019-04-25T21:40:03.051Z,100220.23
2019-04-25T21:42:34.281Z,100231.59
2019-04-25T21:45:05.477Z,100244.13
2019-04-25T21:47:37.807Z,100252.28
2019-04-25T21:50:08.352Z,100258.83
2019-04-25T21:52:38.003Z,100253.09
2019-04-25T21:55:08.528Z,100255.48
2019-04-25T21:57:38.203Z,100259.02
2019-04-25T22:00:11.521Z,100252.33
2019-04-25T22:02:41.367Z,100242.11
2019-04-25T22:05:11.950Z,100255.60
2019-04-25T22:07:41.718Z,100272.97
2019-04-25T22:10:11.758Z,100270.17
2019-04-25T22:12:41.146Z,100272.22
2019-04-25T22:15:13.260Z,100254.70
2019-04-25T22:17:42.779Z,100250.86
2019-04-25T22:20:12.169Z,100240.81
2019-04-25T22:22:41.872Z,100238.83
2019-04-25T22:25:11.299Z,100236.81
2019-04-25T22:27:40.950Z,100219.56
2019-04-25T22:30:12.442Z,100225.27
2019-04-25T22:32:55.807Z,100224.05
2019-04-25T22:35:26.731Z,100216.53
2019-04-25T22:37:56.049Z,100216.70
2019-04-25T22:40:25.346Z,100216.44
2019-04-25T22:42:54.868Z,100212.24
2019-04-25T22:45:24.632Z,100216.33
2019-04-25T22:47:54.760Z,100205.31
2019-04-25T22:50:24.458Z,100203.84
2019-04-25T22:52:54.020Z,100214.20
2019-04-25T22:55:23.326Z,100206.33
2019-04-25T22:57:53.010Z,100204.02
2019-04-25T23:00:26.723Z,100200.31
2019-04-25T23:03:01.999Z,100187.84
2019-04-25T23:05:33.962Z,100179.81
2019-04-25T23:08:04.146Z,100179.33
2019-04-25T23:10:33.609Z,100188.35
2019-04-25T23:13:04.611Z,100196.72
2019-04-25T23:15:34.445Z,100202.84
2019-04-25T23:18:05.273Z,100195.70
2019-04-25T23:20:34.859Z,100200.03
2019-04-25T23:23:04.761Z,100207.53
2019-04-25T23:25:37.120Z,100214.20
2019-04-25T23:28:10.483Z,100219.84
2019-04-25T23:30:45.159Z,100216.34
2019-04-25T23:33:14.711Z,100225.17
2019-04-25T23:35:46.085Z,100236.47
2019-04-25T23:38:16.117Z,100232.97
2019-04-25T23:40:45.683Z,100239.14
2019-04-25T23:43:15.897Z,100242.62
2019-04-25T23:45:45.277Z,100219.35
2019-04-25T23:48:15.336Z,100204.88
2019-04-25T23:50:44.626Z,100199.71
2019-04-25T23:53:15.032Z,100195.23
2019-04-25T23:55:45.031Z,100191.05
2019-04-25T23:58:14.670Z,100191.55
